Time;durP1;ratioP1;P1;durP2;ratioP2;P2;SDS_P1;SDS_P2;PMS_P1;PMS_P2;Temp;Humidity;BMP_temperature;BMP_pressure;BME280_temperature;BME280_humidity;BME280_pressure;Samples;Min_cycle;Max_cycle;Signal;HPM_P1;HPM_P2
2021/11/03 00:03:08;;;;;;;1.27;0.90;;;;;;;;;;10604251;27;20031;-72
2021/11/03 00:08:12;;;;;;;1.70;1.07;;;;;;;;;;10601558;27;20047;-71
2021/11/03 00:13:19;;;;;;;3.77;1.40;;;;;;;;;;10611969;27;20081;-73
2021/11/03 00:18:22;;;;;;;0.70;0.60;;;;;;;;;;10602695;27;20451;-72
2021/11/03 00:23:27;;;;;;;1.20;0.43;;;;;;;;;;10610154;27;20126;-74
2021/11/03 00:28:30;;;;;;;1.07;0.57;;;;;;;;;;10613262;27;20063;-69
2021/11/03 00:33:33;;;;;;;1.35;0.88;;;;;;;;;;10603509;27;20105;-70
2021/11/03 00:38:38;;;;;;;0.50;0.35;;;;;;;;;;10604874;27;20107;-72
2021/11/03 00:43:41;;;;;;;1.10;0.80;;;;;;;;;;10607422;27;20042;-70
2021/11/03 00:48:44;;;;;;;0.80;0.50;;;;;;;;;;10607969;27;20067;-69
2021/11/03 00:53:49;;;;;;;1.27;0.60;;;;;;;;;;10600179;27;20047;-70
2021/11/03 00:58:53;;;;;;;2.20;0.90;;;;;;;;;;10600349;27;20069;-72
2021/11/03 01:03:56;;;;;;;0.32;0.32;;;;;;;;;;10605666;27;20413;-73
2021/11/03 01:09:00;;;;;;;1.37;0.50;;;;;;;;;;10607243;27;20514;-71
2021/11/03 01:14:03;;;;;;;1.80;0.57;;;;;;;;;;10611785;27;20038;-71
2021/11/03 01:19:07;;;;;;;2.23;0.53;;;;;;;;;;10609712;27;20039;-72
2021/11/03 01:24:12;;;;;;;0.93;0.77;;;;;;;;;;10591949;27;20091;-72
2021/11/03 01:29:15;;;;;;;1.20;0.50;;;;;;;;;;10618315;27;20184;-71
2021/11/03 01:34:18;;;;;;;0.60;0.40;;;;;;;;;;10600052;27;20051;-69
2021/11/03 01:39:23;;;;;;;0.17;0.17;;;;;;;;;;10604572;27;20031;-69
2021/11/03 01:44:27;;;;;;;3.63;0.60;;;;;;;;;;10610426;27;20296;-71
2021/11/03 01:49:31;;;;;;;0.53;0.47;;;;;;;;;;10601432;27;20041;-70
2021/11/03 02:00:12;;;;;;;0.67;0.40;;;;;;;;;;10597884;27;20047;-70
2021/11/03 02:05:17;;;;;;;0.13;0.13;;;;;;;;;;10600946;27;20054;-69
2021/11/03 02:10:22;;;;;;;0.90;0.43;;;;;;;;;;10600864;27;20042;-70
2021/11/03 02:15:33;;;;;;;1.53;0.17;;;;;;;;;;10610666;27;20491;-70
2021/11/03 02:20:39;;;;;;;1.13;0.70;;;;;;;;;;10592142;27;20598;-71
2021/11/03 02:26:07;;;;;;;0.90;0.47;;;;;;;;;;10596467;27;20442;-71
2021/11/03 02:31:27;;;;;;;1.37;0.70;;;;;;;;;;10602339;27;20035;-71
2021/11/03 02:36:30;;;;;;;1.20;0.80;;;;;;;;;;10599803;27;20031;-69
2021/11/03 02:41:55;;;;;;;0.50;0.20;;;;;;;;;;10600016;27;20065;-71
2021/11/03 02:47:18;;;;;;;0.50;0.40;;;;;;;;;;10601933;27;20040;-73
2021/11/03 02:52:21;;;;;;;;;;;;;;;;;;10599819;27;20449;-71
2021/11/03 02:57:25;;;;;;;0.47;0.30;;;;;;;;;;10601789;27;20387;-71
2021/11/03 03:02:28;;;;;;;0.40;0.40;;;;;;;;;;10595449;27;20047;-71
2021/11/03 03:07:31;;;;;;;1.23;0.60;;;;;;;;;;10600343;27;20039;-73
2021/11/03 03:12:36;;;;;;;3.37;0.93;;;;;;;;;;10600176;27;20039;-71
2021/11/03 03:17:38;;;;;;;2.37;0.63;;;;;;;;;;10607397;27;20413;-71
2021/11/03 03:22:41;;;;;;;2.67;1.30;;;;;;;;;;10609886;27;20047;-71
2021/11/03 03:27:46;;;;;;;2.50;1.48;;;;;;;;;;10608138;27;20780;-72
2021/11/03 03:32:49;;;;;;;1.93;1.30;;;;;;;;;;10613786;27;20042;-71
2021/11/03 03:37:52;;;;;;;2.40;1.53;;;;;;;;;;10609379;27;20130;-70
2021/11/03 03:42:56;;;;;;;1.50;1.07;;;;;;;;;;10612750;27;20058;-71
2021/11/03 03:48:02;;;;;;;2.70;1.13;;;;;;;;;;10608046;27;20603;-71
2021/11/03 03:53:05;;;;;;;0.60;0.60;;;;;;;;;;10606800;27;20383;-72
2021/11/03 03:58:10;;;;;;;0.70;0.37;;;;;;;;;;10606528;27;20148;-71
2021/11/03 04:03:13;;;;;;;1.63;1.10;;;;;;;;;;10607350;27;20058;-69
2021/11/03 04:08:16;;;;;;;2.97;1.37;;;;;;;;;;10604203;27;20050;-72
2021/11/03 04:13:21;;;;;;;3.70;1.93;;;;;;;;;;10604455;27;20099;-70
2021/11/03 04:18:44;;;;;;;5.83;2.10;;;;;;;;;;10603967;27;20120;-71
2021/11/03 04:23:47;;;;;;;1.63;0.90;;;;;;;;;;10606956;27;20174;-72
2021/11/03 04:28:51;;;;;;;5.57;2.97;;;;;;;;;;10613044;27;20035;-70
2021/11/03 04:33:54;;;;;;;6.07;2.70;;;;;;;;;;10605297;27;20499;-72
2021/11/03 04:38:58;;;;;;;4.17;2.17;;;;;;;;;;10599046;27;20482;-71
2021/11/03 04:44:04;;;;;;;4.87;2.60;;;;;;;;;;10606600;27;20031;-70
2021/11/03 04:49:07;;;;;;;5.43;3.07;;;;;;;;;;10601760;27;20040;-70
2021/11/03 04:54:10;;;;;;;4.57;2.43;;;;;;;;;;10605478;27;20042;-70
2021/11/03 04:59:15;;;;;;;3.83;2.07;;;;;;;;;;10609372;27;20060;-72
2021/11/03 05:04:18;;;;;;;5.03;2.23;;;;;;;;;;10609774;27;20031;-68
2021/11/03 05:09:20;;;;;;;5.90;2.10;;;;;;;;;;10606023;27;20107;-70
2021/11/03 05:14:25;;;;;;;7.43;3.00;;;;;;;;;;10608334;27;20134;-69
2021/11/03 05:19:30;;;;;;;3.43;1.40;;;;;;;;;;10601663;27;20142;-71
2021/11/03 05:24:33;;;;;;;2.63;1.43;;;;;;;;;;10606872;27;20054;-71
2021/11/03 05:29:38;;;;;;;4.47;1.97;;;;;;;;;;10606368;27;20035;-70
2021/11/03 05:34:41;;;;;;;7.17;3.03;;;;;;;;;;10603042;27;20114;-70
2021/11/03 05:39:44;;;;;;;2.57;1.53;;;;;;;;;;10603469;27;20127;-68
2021/11/03 05:44:48;;;;;;;6.30;2.50;;;;;;;;;;10609117;27;20035;-70
2021/11/03 05:49:52;;;;;;;6.17;3.13;;;;;;;;;;10605363;27;20521;-71
2021/11/03 05:54:55;;;;;;;5.83;2.60;;;;;;;;;;10594033;27;20048;-73
2021/11/03 06:00:00;;;;;;;7.50;3.07;;;;;;;;;;10597181;27;20054;-72
2021/11/03 06:05:03;;;;;;;7.03;3.10;;;;;;;;;;10600830;27;20122;-71
2021/11/03 06:10:08;;;;;;;7.07;3.60;;;;;;;;;;10607005;27;20567;-71
2021/11/03 06:15:14;;;;;;;7.80;3.13;;;;;;;;;;10575391;27;20042;-69
2021/11/03 06:20:17;;;;;;;8.87;3.33;;;;;;;;;;10604688;27;20079;-70
2021/11/03 06:25:21;;;;;;;7.60;2.90;;;;;;;;;;10598584;27;20047;-71
2021/11/03 06:30:28;;;;;;;7.50;3.17;;;;;;;;;;10607581;27;20072;-72
2021/11/03 06:35:33;;;;;;;8.80;2.80;;;;;;;;;;10601806;27;20043;-69
2021/11/03 06:40:40;;;;;;;6.53;2.70;;;;;;;;;;10607608;27;20140;-73
2021/11/03 06:45:45;;;;;;;7.20;3.10;;;;;;;;;;10599288;27;20043;-72
2021/11/03 06:50:48;;;;;;;6.70;3.00;;;;;;;;;;10584757;27;20062;-72
2021/11/03 06:55:53;;;;;;;5.50;2.97;;;;;;;;;;10599613;27;20129;-69
2021/11/03 07:00:58;;;;;;;6.22;2.97;;;;;;;;;;10592911;27;20061;-71
2021/11/03 07:06:01;;;;;;;7.47;2.87;;;;;;;;;;10596167;27;20071;-72
2021/11/03 07:11:04;;;;;;;7.43;3.00;;;;;;;;;;10594619;27;20051;-72
2021/11/03 07:16:09;;;;;;;8.30;3.17;;;;;;;;;;10601113;27;20065;-72
2021/11/03 07:21:12;;;;;;;7.37;2.97;;;;;;;;;;10576282;27;20040;-70
2021/11/03 07:26:15;;;;;;;4.47;2.20;;;;;;;;;;10576193;27;20458;-71
2021/11/03 07:31:20;;;;;;;3.93;3.27;;;;;;;;;;10591416;27;20043;-71
2021/11/03 07:36:23;;;;;;;4.93;2.30;;;;;;;;;;10594384;27;20038;-73
2021/11/03 07:41:26;;;;;;;4.17;2.17;;;;;;;;;;10598360;27;20498;-71
2021/11/03 07:46:34;;;;;;;4.97;2.35;;;;;;;;;;10589660;27;20596;-69
2021/11/03 07:51:37;;;;;;;4.85;1.63;;;;;;;;;;10594865;27;20047;-71
2021/11/03 07:56:43;;;;;;;4.93;1.17;;;;;;;;;;10583897;27;20039;-70
2021/11/03 08:01:47;;;;;;;5.30;1.90;;;;;;;;;;10590639;27;20046;-69
2021/11/03 08:06:50;;;;;;;3.30;1.40;;;;;;;;;;10603654;27;20043;-70
2021/11/03 08:11:55;;;;;;;2.47;1.60;;;;;;;;;;10606914;27;20043;-70
2021/11/03 08:17:01;;;;;;;3.20;1.73;;;;;;;;;;10603098;27;20097;-69
2021/11/03 08:22:04;;;;;;;2.45;1.60;;;;;;;;;;10579381;27;20088;-70
2021/11/03 08:27:07;;;;;;;2.87;1.90;;;;;;;;;;10598325;27;20031;-70
2021/11/03 08:32:13;;;;;;;1.60;1.02;;;;;;;;;;10595093;27;20463;-71
2021/11/03 08:37:19;;;;;;;2.05;1.05;;;;;;;;;;10581212;27;20043;-70
2021/11/03 08:42:23;;;;;;;3.22;1.83;;;;;;;;;;10598419;27;20130;-68
2021/11/03 08:47:27;;;;;;;5.50;2.30;;;;;;;;;;10597777;27;20091;-70
2021/11/03 08:52:29;;;;;;;;;;;;;;;;;;10600053;27;20226;-72
2021/11/03 08:57:34;;;;;;;1.50;1.30;;;;;;;;;;10573959;27;20348;-70
2021/11/03 09:02:38;;;;;;;6.30;1.67;;;;;;;;;;10594108;27;20153;-71
2021/11/03 09:07:41;;;;;;;1.90;1.52;;;;;;;;;;10602229;27;20448;-71
2021/11/03 09:12:44;;;;;;;1.20;1.02;;;;;;;;;;10604914;27;20502;-70
2021/11/03 09:17:48;;;;;;;2.65;1.85;;;;;;;;;;10603377;27;20764;-71
2021/11/03 09:22:51;;;;;;;1.73;1.10;;;;;;;;;;10606932;27;20047;-71
2021/11/03 09:28:00;;;;;;;1.30;1.02;;;;;;;;;;10575869;27;20403;-71
2021/11/03 09:33:07;;;;;;;2.03;1.27;;;;;;;;;;10604612;27;20038;-71
2021/11/03 09:38:12;;;;;;;4.22;1.67;;;;;;;;;;10595683;27;20035;-71
2021/11/03 09:43:24;;;;;;;2.67;1.00;;;;;;;;;;10602598;27;20501;-71
2021/11/03 09:48:30;;;;;;;3.50;1.23;;;;;;;;;;10599172;27;20104;-70
2021/11/03 09:53:35;;;;;;;2.05;1.10;;;;;;;;;;10585329;27;20047;-70
2021/11/03 09:58:38;;;;;;;;;;;;;;;;;;10596078;27;20116;-70
2021/11/03 10:03:45;;;;;;;2.45;1.50;;;;;;;;;;10598526;27;19954;-70
2021/11/03 10:08:50;;;;;;;2.28;1.30;;;;;;;;;;10590744;27;20077;-71
2021/11/03 10:13:54;;;;;;;1.25;0.80;;;;;;;;;;10598301;27;20435;-71
2021/11/03 10:18:59;;;;;;;2.83;1.15;;;;;;;;;;10591042;27;20050;-71
2021/11/03 10:24:05;;;;;;;3.03;1.52;;;;;;;;;;10600774;27;20122;-72
2021/11/03 10:29:09;;;;;;;1.58;1.20;;;;;;;;;;10590748;27;20042;-72
2021/11/03 10:34:21;;;;;;;4.13;1.00;;;;;;;;;;10590438;27;20138;-72
2021/11/03 10:39:25;;;;;;;2.65;1.23;;;;;;;;;;10567721;27;20482;-70
2021/11/03 10:44:29;;;;;;;3.85;2.35;;;;;;;;;;10595558;27;20490;-70
2021/11/03 10:55:16;;;;;;;2.20;1.20;;;;;;;;;;10606959;27;20055;-69
2021/11/03 11:00:22;;;;;;;8.07;1.80;;;;;;;;;;10597671;27;20039;-70
2021/11/03 11:05:28;;;;;;;1.77;1.30;;;;;;;;;;10592653;27;20039;-69
2021/11/03 11:10:33;;;;;;;1.98;1.48;;;;;;;;;;10594340;27;20039;-69
2021/11/03 11:15:40;;;;;;;1.23;0.90;;;;;;;;;;10580898;27;20115;-72
2021/11/03 11:20:47;;;;;;;3.42;1.67;;;;;;;;;;10584452;27;20043;-70
2021/11/03 11:25:53;;;;;;;3.38;1.50;;;;;;;;;;10589654;27;20048;-68
2021/11/03 11:30:57;;;;;;;2.10;1.30;;;;;;;;;;10604217;27;20035;-70
2021/11/03 11:36:16;;;;;;;4.80;1.70;;;;;;;;;;10584730;27;20522;-67
2021/11/03 11:41:22;;;;;;;2.38;1.38;;;;;;;;;;10607149;27;20035;-70
2021/11/03 11:46:29;;;;;;;0.98;0.60;;;;;;;;;;10597115;27;20132;-69
2021/11/03 11:51:35;;;;;;;1.90;1.05;;;;;;;;;;10595142;27;20108;-70
2021/11/03 11:56:39;;;;;;;3.10;1.52;;;;;;;;;;10600386;27;20491;-70
2021/11/03 12:01:43;;;;;;;1.83;1.30;;;;;;;;;;10603406;27;20447;-71
2021/11/03 12:06:45;;;;;;;;;;;;;;;;;;10601637;27;20519;-72
2021/11/03 12:11:59;;;;;;;5.10;1.50;;;;;;;;;;10612831;27;19947;-71
2021/11/03 12:17:20;;;;;;;2.22;1.42;;;;;;;;;;10605729;27;20051;-71
2021/11/03 12:22:41;;;;;;;4.15;2.10;;;;;;;;;;10604089;27;20398;-71
2021/11/03 12:27:46;;;;;;;6.15;1.90;;;;;;;;;;10596613;27;20375;-71
2021/11/03 12:32:56;;;;;;;3.30;1.70;;;;;;;;;;10600971;27;20046;-71
2021/11/03 12:38:00;;;;;;;2.13;1.30;;;;;;;;;;10601437;27;20041;-68
2021/11/03 12:43:19;;;;;;;4.60;1.23;;;;;;;;;;10597389;27;20054;-71
2021/11/03 12:48:29;;;;;;;4.07;1.90;;;;;;;;;;10593766;27;20112;-71
2021/11/03 12:53:34;;;;;;;2.35;1.10;;;;;;;;;;10585363;27;20108;-71
2021/11/03 12:58:40;;;;;;;2.75;1.40;;;;;;;;;;10604478;27;20084;-71
2021/11/03 13:03:47;;;;;;;2.78;1.55;;;;;;;;;;10604109;27;20046;-72
2021/11/03 13:08:51;;;;;;;3.72;1.63;;;;;;;;;;10602285;27;20612;-70
2021/11/03 13:13:57;;;;;;;6.85;1.70;;;;;;;;;;10591146;27;20534;-71
2021/11/03 13:19:00;;;;;;;7.80;2.13;;;;;;;;;;10601896;27;20051;-72
2021/11/03 13:24:08;;;;;;;10.70;2.35;;;;;;;;;;10589590;27;20567;-71
2021/11/03 13:29:20;;;;;;;5.43;2.50;;;;;;;;;;10605440;27;20403;-71
2021/11/03 13:34:27;;;;;;;4.78;2.20;;;;;;;;;;10607833;27;20130;-70
2021/11/03 13:39:31;;;;;;;6.95;2.30;;;;;;;;;;10586679;27;20280;-71
2021/11/03 13:44:40;;;;;;;5.20;2.40;;;;;;;;;;10598382;27;20047;-69
2021/11/03 13:49:43;;;;;;;9.68;2.72;;;;;;;;;;10573348;27;20032;-70
2021/11/03 13:54:50;;;;;;;4.15;2.25;;;;;;;;;;10592119;27;20059;-70
2021/11/03 13:59:57;;;;;;;5.25;2.40;;;;;;;;;;10605128;27;20092;-68
2021/11/03 14:04:59;;;;;;;5.60;1.75;;;;;;;;;;10602476;27;20146;-71
2021/11/03 14:10:22;;;;;;;2.75;1.80;;;;;;;;;;10610188;27;20039;-70
2021/11/03 14:15:42;;;;;;;5.57;2.15;;;;;;;;;;10600824;27;20043;-71
2021/11/03 14:20:46;;;;;;;3.53;2.25;;;;;;;;;;10587171;27;20062;-72
2021/11/03 14:25:50;;;;;;;2.65;1.42;;;;;;;;;;10610767;27;20050;-70
2021/11/03 14:30:55;;;;;;;2.17;1.57;;;;;;;;;;10602725;27;20035;-69
2021/11/03 14:36:00;;;;;;;3.42;1.92;;;;;;;;;;10590510;27;20430;-70
2021/11/03 14:41:05;;;;;;;3.63;1.85;;;;;;;;;;10582660;27;20035;-70
2021/11/03 14:46:18;;;;;;;7.25;3.17;;;;;;;;;;10597076;27;20046;-70
2021/11/03 14:51:22;;;;;;;5.72;2.47;;;;;;;;;;10564591;27;20043;-70
2021/11/03 14:56:26;;;;;;;3.78;1.98;;;;;;;;;;10597982;27;20556;-67
2021/11/03 15:01:32;;;;;;;3.80;1.58;;;;;;;;;;10596307;27;20070;-71
2021/11/03 15:06:35;;;;;;;3.15;1.65;;;;;;;;;;10596693;27;20121;-70
2021/11/03 15:11:38;;;;;;;4.25;2.03;;;;;;;;;;10579644;27;20039;-71
2021/11/03 15:16:42;;;;;;;6.05;2.58;;;;;;;;;;10595724;27;20676;-68
2021/11/03 15:21:45;;;;;;;6.80;3.97;;;;;;;;;;10591439;27;20458;-73
2021/11/03 15:26:49;;;;;;;3.72;2.15;;;;;;;;;;10575923;27;20509;-70
2021/11/03 15:31:52;;;;;;;;;;;;;;;;;;10599613;27;20039;-70
2021/11/03 15:36:55;;;;;;;;;;;;;;;;;;10596433;27;19928;-69
2021/11/03 15:41:58;;;;;;;;;;;;;;;;;;10600604;27;19920;-70
2021/11/03 15:47:02;;;;;;;7.63;3.20;;;;;;;;;;10594931;27;20370;-71
2021/11/03 15:52:08;;;;;;;4.05;2.30;;;;;;;;;;10590065;27;20131;-69
2021/11/03 15:57:11;;;;;;;3.60;2.20;;;;;;;;;;10605975;27;20514;-69
2021/11/03 16:02:18;;;;;;;2.53;1.10;;;;;;;;;;10602458;27;20043;-69
2021/11/03 16:07:22;;;;;;;5.93;2.80;;;;;;;;;;10589694;27;20047;-70
2021/11/03 16:12:25;;;;;;;3.53;2.17;;;;;;;;;;10599317;27;20063;-70
2021/11/03 16:17:30;;;;;;;4.20;2.22;;;;;;;;;;10601719;27;20075;-69
2021/11/03 16:22:32;;;;;;;;;;;;;;;;;;10587712;27;20069;-70
2021/11/03 16:27:35;;;;;;;3.00;1.42;;;;;;;;;;10598166;27;20398;-72
2021/11/03 16:32:39;;;;;;;4.88;2.65;;;;;;;;;;10599581;27;20100;-69
2021/11/03 16:37:43;;;;;;;5.40;3.10;;;;;;;;;;10600985;27;20126;-71
2021/11/03 16:42:45;;;;;;;;;;;;;;;;;;10588542;27;20051;-71
2021/11/03 16:47:52;;;;;;;7.90;3.35;;;;;;;;;;10579367;27;20002;-70
2021/11/03 16:52:57;;;;;;;5.15;3.33;;;;;;;;;;10605445;27;20035;-71
2021/11/03 16:58:00;;;;;;;4.85;1.60;;;;;;;;;;10605826;27;20034;-71
2021/11/03 17:03:05;;;;;;;3.00;1.93;;;;;;;;;;10586477;27;20063;-70
2021/11/03 17:08:22;;;;;;;9.97;5.07;;;;;;;;;;10606092;27;20046;-73
2021/11/03 17:13:45;;;;;;;7.55;3.97;;;;;;;;;;10607900;27;20035;-71
2021/11/03 17:18:49;;;;;;;2.90;2.00;;;;;;;;;;10607780;27;20150;-70
2021/11/03 17:23:52;;;;;;;12.40;5.03;;;;;;;;;;10607401;27;20063;-71
2021/11/03 17:28:55;;;;;;;8.05;3.83;;;;;;;;;;10604050;27;20043;-70
2021/11/03 17:34:00;;;;;;;9.30;4.43;;;;;;;;;;10607294;27;20435;-71
2021/11/03 17:39:03;;;;;;;11.20;4.57;;;;;;;;;;10608503;27;20043;-71
2021/11/03 17:44:15;;;;;;;5.32;2.33;;;;;;;;;;10608674;27;20047;-71
2021/11/03 17:49:31;;;;;;;4.78;2.28;;;;;;;;;;10601012;27;20055;-70
2021/11/03 17:54:37;;;;;;;2.75;1.95;;;;;;;;;;10604424;27;20039;-69
2021/11/03 17:59:39;;;;;;;8.13;3.97;;;;;;;;;;10598727;27;20036;-70
2021/11/03 18:04:44;;;;;;;5.68;2.63;;;;;;;;;;10595367;27;20070;-70
2021/11/03 18:09:47;;;;;;;5.68;2.80;;;;;;;;;;10603105;27;20039;-71
2021/11/03 18:14:51;;;;;;;6.93;2.92;;;;;;;;;;10593248;27;20036;-71
2021/11/03 18:19:55;;;;;;;9.18;4.65;;;;;;;;;;10598505;27;20782;-71
2021/11/03 18:24:58;;;;;;;;;;;;;;;;;;10601761;27;20115;-71
2021/11/03 18:30:04;;;;;;;6.50;2.85;;;;;;;;;;10595215;27;19926;-70
2021/11/03 18:35:08;;;;;;;7.57;3.33;;;;;;;;;;10593981;27;20272;-69
2021/11/03 18:40:13;;;;;;;8.70;4.03;;;;;;;;;;10597731;27;20051;-72
2021/11/03 18:45:16;;;;;;;;;;;;;;;;;;10577466;27;20043;-71
2021/11/03 18:50:19;;;;;;;;;;;;;;;;;;10598397;27;19955;-71
2021/11/03 18:55:21;;;;;;;;;;;;;;;;;;10595366;27;20358;-72
2021/11/03 19:00:33;;;;;;;;;;;;;;;;;;10602521;27;19923;-71
2021/11/03 19:06:00;;;;;;;;;;;;;;;;;;10583549;27;19927;-71
2021/11/03 19:11:22;;;;;;;;;;;;;;;;;;10586579;27;19929;-73
2021/11/03 19:16:44;;;;;;;;;;;;;;;;;;10602183;27;20387;-72
2021/11/03 19:22:07;;;;;;;;;;;;;;;;;;10602382;27;20271;-72
2021/11/03 19:27:29;;;;;;;;;;;;;;;;;;10598572;27;19919;-71
2021/11/03 19:32:52;;;;;;;;;;;;;;;;;;10603855;27;19919;-71
2021/11/03 19:38:15;;;;;;;;;;;;;;;;;;10595685;27;19919;-71
2021/11/03 19:43:39;;;;;;;;;;;;;;;;;;10594528;27;19930;-70
2021/11/03 19:49:01;;;;;;;5.28;2.00;;;;;;;;;;10595339;27;19927;-73
2021/11/03 19:54:26;;;;;;;3.05;1.52;;;;;;;;;;10602329;27;20047;-72
2021/11/03 19:59:50;;;;;;;3.78;1.95;;;;;;;;;;10607594;27;20049;-70
2021/11/03 20:04:55;;;;;;;2.53;0.95;;;;;;;;;;10605236;27;20096;-69
2021/11/03 20:09:59;;;;;;;1.45;0.90;;;;;;;;;;10590059;27;20035;-73
2021/11/03 20:15:04;;;;;;;2.35;1.25;;;;;;;;;;10605706;27;20670;-71
2021/11/03 20:20:15;;;;;;;3.40;1.33;;;;;;;;;;10609105;27;20039;-72
2021/11/03 20:25:21;;;;;;;2.88;1.40;;;;;;;;;;10602181;27;20362;-73
2021/11/03 20:30:25;;;;;;;1.40;0.80;;;;;;;;;;10599895;27;20464;-68
2021/11/03 20:35:28;;;;;;;;;;;;;;;;;;10601624;27;20146;-73
2021/11/03 20:40:32;;;;;;;2.67;1.20;;;;;;;;;;10602570;27;19962;-71
2021/11/03 20:45:37;;;;;;;2.25;1.40;;;;;;;;;;10613381;27;20060;-73
2021/11/03 20:50:42;;;;;;;3.58;1.38;;;;;;;;;;10621388;27;20031;-70
2021/11/03 20:55:45;;;;;;;0.35;0.35;;;;;;;;;;10619246;27;20041;-70
2021/11/03 21:00:51;;;;;;;2.00;1.38;;;;;;;;;;10599721;27;20122;-72
2021/11/03 21:05:55;;;;;;;2.72;1.70;;;;;;;;;;10590301;27;20525;-72
2021/11/03 21:10:58;;;;;;;4.45;1.70;;;;;;;;;;10621854;27;20130;-71
2021/11/03 21:16:02;;;;;;;3.63;0.83;;;;;;;;;;10600712;27;20046;-71
2021/11/03 21:21:07;;;;;;;2.88;1.30;;;;;;;;;;10597928;27;20390;-71
2021/11/03 21:26:10;;;;;;;0.60;0.57;;;;;;;;;;10598157;27;20039;-72
2021/11/03 21:31:13;;;;;;;;;;;;;;;;;;10600438;27;20035;-71
2021/11/03 21:36:18;;;;;;;3.60;1.70;;;;;;;;;;10607733;27;19964;-74
2021/11/03 21:41:21;;;;;;;1.20;0.68;;;;;;;;;;10606152;27;20153;-72
2021/11/03 21:46:24;;;;;;;2.03;1.07;;;;;;;;;;10616146;27;20046;-71
2021/11/03 21:51:29;;;;;;;1.85;1.10;;;;;;;;;;10596591;27;20057;-73
2021/11/03 21:56:32;;;;;;;2.53;1.25;;;;;;;;;;10600593;27;20053;-74
2021/11/03 22:01:35;;;;;;;4.80;1.97;;;;;;;;;;10624319;27;20042;-72
2021/11/03 22:06:48;;;;;;;1.85;0.60;;;;;;;;;;10611841;27;20039;-75
2021/11/03 22:11:51;;;;;;;9.75;3.67;;;;;;;;;;10587863;27;20055;-74
2021/11/03 22:16:57;;;;;;;2.75;1.17;;;;;;;;;;10580459;27;20086;-74
2021/11/03 22:22:05;;;;;;;1.52;0.93;;;;;;;;;;10602921;27;20233;-74
2021/11/03 22:27:08;;;;;;;2.65;1.20;;;;;;;;;;10605262;27;20557;-77
2021/11/03 22:32:11;;;;;;;1.80;1.00;;;;;;;;;;10587239;27;20035;-74
2021/11/03 22:37:16;;;;;;;1.63;0.90;;;;;;;;;;10587984;27;20046;-72
2021/11/03 22:42:19;;;;;;;0.68;0.45;;;;;;;;;;10585511;27;20065;-73
2021/11/03 22:47:23;;;;;;;3.45;0.88;;;;;;;;;;10610526;27;20042;-73
2021/11/03 22:52:27;;;;;;;2.60;0.88;;;;;;;;;;10603492;27;20039;-74
2021/11/03 22:57:31;;;;;;;1.63;1.10;;;;;;;;;;10607269;27;20054;-73
2021/11/03 23:02:34;;;;;;;0.57;0.57;;;;;;;;;;10580468;27;20062;-74
2021/11/03 23:07:38;;;;;;;1.53;0.80;;;;;;;;;;10602350;27;20035;-75
2021/11/03 23:12:44;;;;;;;1.52;0.70;;;;;;;;;;10586561;27;20139;-75
2021/11/03 23:17:47;;;;;;;1.13;0.80;;;;;;;;;;10592327;27;20039;-75
2021/11/03 23:22:52;;;;;;;1.65;0.60;;;;;;;;;;10591084;27;20126;-75
2021/11/03 23:27:55;;;;;;;1.17;0.95;;;;;;;;;;10592884;27;20047;-75
2021/11/03 23:32:59;;;;;;;2.15;0.90;;;;;;;;;;10605245;27;20040;-75
2021/11/03 23:38:03;;;;;;;1.43;0.70;;;;;;;;;;10596817;27;20047;-74
2021/11/03 23:43:07;;;;;;;2.25;0.70;;;;;;;;;;10613119;27;20032;-73
2021/11/03 23:48:10;;;;;;;1.15;0.70;;;;;;;;;;10597295;27;20039;-74
2021/11/03 23:53:15;;;;;;;1.75;0.60;;;;;;;;;;10591637;27;20047;-72
2021/11/03 23:58:18;;;;;;;0.38;0.22;;;;;;;;;;10589561;27;20039;-74
